Time;durP1;ratioP1;P1;durP2;ratioP2;P2;SDS_P1;SDS_P2;PMS_P1;PMS_P2;Temp;Humidity;BMP_temperature;BMP_pressure;BME280_temperature;BME280_humidity;BME280_pressure;Samples;Min_cycle;Max_cycle;Signal;HPM_P1;HPM_P2
2023/07/23 00:01:52;;;;;;;6.78;4.43;;;20.10;99.90;;;;;;5008487;28;20034;-71
2023/07/23 00:04:17;;;;;;;8.23;4.10;;;20.00;99.90;;;;;;5000138;28;20061;-71
2023/07/23 00:06:43;;;;;;;9.15;4.80;;;20.00;99.90;;;;;;5003901;28;20064;-71
2023/07/23 00:09:10;;;;;;;6.90;4.53;;;19.90;99.90;;;;;;5006407;28;20030;-71
2023/07/23 00:11:35;;;;;;;8.32;4.57;;;19.90;99.90;;;;;;5000884;28;20034;-71
2023/07/23 00:14:01;;;;;;;10.60;4.85;;;19.90;99.90;;;;;;5004016;28;20044;-71
2023/07/23 00:16:27;;;;;;;6.93;4.03;;;19.90;99.90;;;;;;5003592;28;20564;-71
2023/07/23 00:18:52;;;;;;;7.10;4.13;;;19.90;99.90;;;;;;5003326;28;20372;-71
2023/07/23 00:21:18;;;;;;;10.02;4.15;;;20.00;99.90;;;;;;5004057;28;20046;-71
2023/07/23 00:23:43;;;;;;;9.55;4.82;;;19.90;99.90;;;;;;5003189;28;20036;-71
2023/07/23 00:26:09;;;;;;;6.90;4.10;;;19.90;99.90;;;;;;5009123;28;20103;-71
2023/07/23 00:28:35;;;;;;;7.53;4.18;;;20.10;99.90;;;;;;5001631;28;20101;-71
2023/07/23 00:31:00;;;;;;;7.97;3.67;;;20.10;99.90;;;;;;5000888;28;20057;-71
2023/07/23 00:33:26;;;;;;;7.00;4.07;;;20.10;99.90;;;;;;5005569;28;20037;-71
2023/07/23 00:35:52;;;;;;;8.65;4.53;;;20.10;99.90;;;;;;5002267;28;20034;-71
2023/07/23 00:38:17;;;;;;;7.70;4.32;;;20.00;99.90;;;;;;5003931;28;20034;-71
2023/07/23 00:40:43;;;;;;;8.82;4.47;;;20.00;99.90;;;;;;5004848;28;20546;-71
2023/07/23 00:43:10;;;;;;;8.48;4.68;;;20.00;99.90;;;;;;5004871;28;20100;-71
2023/07/23 00:45:36;;;;;;;9.02;5.22;;;20.10;99.90;;;;;;5005216;28;20101;-71
2023/07/23 00:48:02;;;;;;;12.40;5.03;;;20.10;99.90;;;;;;5005435;28;20030;-71
2023/07/23 00:50:29;;;;;;;8.50;5.45;;;20.10;99.90;;;;;;4999430;28;20038;-71
2023/07/23 00:52:56;;;;;;;7.88;4.30;;;20.40;99.90;;;;;;5003742;28;20022;-71
2023/07/23 00:55:22;;;;;;;8.38;4.88;;;20.40;99.90;;;;;;4996340;28;20464;-71
2023/07/23 00:57:48;;;;;;;8.85;5.03;;;20.40;99.90;;;;;;5003286;28;20052;-71
2023/07/23 01:00:14;;;;;;;6.97;4.50;;;20.40;99.90;;;;;;5003808;28;20468;-71
2023/07/23 01:02:39;;;;;;;6.53;4.00;;;20.30;99.90;;;;;;4998996;28;20484;-71
2023/07/23 01:05:06;;;;;;;7.35;4.50;;;20.30;99.90;;;;;;5001818;28;20529;-71
2023/07/23 01:07:34;;;;;;;7.88;4.15;;;20.20;99.90;;;;;;4996581;28;20404;-71
2023/07/23 01:10:03;;;;;;;9.23;4.30;;;20.10;99.90;;;;;;5000124;28;20439;-71
2023/07/23 01:12:30;;;;;;;7.72;4.40;;;20.00;99.90;;;;;;5006482;28;20042;-71
2023/07/23 01:14:57;;;;;;;10.00;4.65;;;19.90;99.90;;;;;;5002942;28;20041;-71
2023/07/23 01:17:23;;;;;;;7.63;4.38;;;19.90;99.90;;;;;;5002384;28;20030;-71
2023/07/23 01:20:00;;;;;;;6.22;4.07;;;20.00;99.90;;;;;;4998813;28;20049;-71
2023/07/23 01:22:25;;;;;;;9.20;4.20;;;20.10;99.90;;;;;;5001298;28;20038;-71
2023/07/23 01:24:51;;;;;;;6.50;4.28;;;20.10;99.90;;;;;;5004673;28;20369;-71
2023/07/23 01:27:17;;;;;;;7.82;4.00;;;20.10;99.90;;;;;;5004362;28;20033;-71
2023/07/23 01:29:42;;;;;;;9.48;4.43;;;20.00;99.90;;;;;;5005241;28;20022;-71
2023/07/23 01:32:08;;;;;;;9.95;4.55;;;20.10;99.90;;;;;;5003343;28;20034;-71
2023/07/23 01:34:33;;;;;;;7.60;4.28;;;20.00;99.90;;;;;;4998441;28;20035;-71
2023/07/23 01:37:01;;;;;;;6.25;3.72;;;20.10;99.90;;;;;;4997794;28;20026;-71
2023/07/23 01:39:26;;;;;;;7.18;4.25;;;20.00;99.90;;;;;;4999932;28;20495;-71
2023/07/23 01:41:53;;;;;;;8.02;4.65;;;20.00;99.90;;;;;;5003022;28;20053;-71
2023/07/23 01:44:19;;;;;;;10.15;4.53;;;20.10;99.90;;;;;;5000700;28;20432;-71
2023/07/23 01:46:46;;;;;;;8.20;4.22;;;20.20;99.90;;;;;;4999050;28;20120;-71
2023/07/23 01:49:12;;;;;;;6.32;4.07;;;20.20;99.90;;;;;;5002971;28;20026;-71
2023/07/23 01:51:37;;;;;;;7.28;4.05;;;20.20;99.90;;;;;;4998816;28;20096;-71
2023/07/23 01:54:03;;;;;;;8.07;4.25;;;20.10;99.90;;;;;;5001382;28;20034;-71
2023/07/23 01:56:28;;;;;;;8.25;4.25;;;20.00;99.90;;;;;;5002517;28;20033;-71
2023/07/23 01:58:54;;;;;;;7.05;4.80;;;20.00;99.90;;;;;;5005109;28;20080;-71
2023/07/23 02:01:21;;;;;;;10.23;4.68;;;20.00;99.90;;;;;;5002227;28;20034;-71
2023/07/23 02:03:46;;;;;;;7.75;3.92;;;20.10;99.90;;;;;;5001430;28;20029;-71
2023/07/23 02:06:12;;;;;;;6.80;4.28;;;20.00;99.90;;;;;;5008580;28;20124;-71
2023/07/23 02:08:37;;;;;;;8.88;4.38;;;20.00;99.90;;;;;;5003630;28;20038;-71
2023/07/23 02:11:03;;;;;;;8.88;4.38;;;20.00;99.90;;;;;;5002812;28;20030;-71
2023/07/23 02:13:29;;;;;;;7.00;4.68;;;20.00;99.90;;;;;;4999992;28;20040;-71
2023/07/23 02:15:55;;;;;;;8.05;4.38;;;20.00;99.90;;;;;;4997069;28;20083;-71
2023/07/23 02:18:21;;;;;;;6.75;4.38;;;20.20;99.90;;;;;;5001027;28;20145;-71
2023/07/23 02:20:47;;;;;;;7.43;4.60;;;20.10;99.90;;;;;;4995830;28;20391;-71
2023/07/23 02:23:15;;;;;;;6.75;4.57;;;20.10;99.90;;;;;;4999905;28;20033;-71
2023/07/23 02:25:41;;;;;;;9.13;5.22;;;20.20;99.90;;;;;;4999614;28;20026;-71
2023/07/23 02:28:09;;;;;;;7.38;4.22;;;20.20;99.90;;;;;;5000507;28;20041;-71
2023/07/23 02:30:35;;;;;;;7.95;4.10;;;20.20;99.90;;;;;;5001819;28;20104;-71
2023/07/23 02:33:01;;;;;;;8.82;4.80;;;20.20;99.90;;;;;;4999805;28;20108;-71
2023/07/23 02:35:26;;;;;;;9.10;4.35;;;20.20;99.90;;;;;;5003167;28;20061;-71
2023/07/23 02:37:52;;;;;;;6.65;3.92;;;20.20;99.90;;;;;;5001396;28;20093;-71
2023/07/23 02:40:19;;;;;;;7.38;4.50;;;20.20;99.90;;;;;;5004682;28;20061;-71
2023/07/23 02:42:47;;;;;;;6.60;4.20;;;20.00;99.90;;;;;;5001686;28;20026;-71
2023/07/23 02:45:13;;;;;;;8.95;4.90;;;19.80;99.90;;;;;;4999253;28;20034;-71
2023/07/23 02:47:39;;;;;;;7.25;4.32;;;20.00;99.90;;;;;;4999500;28;20034;-71
2023/07/23 02:50:06;;;;;;;6.43;4.05;;;20.00;99.90;;;;;;5006977;28;20501;-70
2023/07/23 02:52:31;;;;;;;6.93;4.53;;;19.90;99.90;;;;;;4998970;28;20053;-71
2023/07/23 02:54:57;;;;;;;6.78;4.15;;;20.00;99.90;;;;;;4999107;28;20484;-71
2023/07/23 02:57:23;;;;;;;7.50;4.10;;;20.00;99.90;;;;;;5000575;28;20030;-71
2023/07/23 02:59:48;;;;;;;8.13;4.65;;;19.90;99.90;;;;;;5003764;28;20068;-71
2023/07/23 03:02:14;;;;;;;10.18;5.00;;;19.90;99.90;;;;;;5006397;28;20025;-71
2023/07/23 03:04:41;;;;;;;7.50;4.35;;;20.00;99.90;;;;;;4997550;28;20534;-71
2023/07/23 03:07:09;;;;;;;7.75;4.38;;;20.10;99.90;;;;;;4998100;28;20488;-71
2023/07/23 03:09:35;;;;;;;6.63;3.90;;;20.20;99.90;;;;;;5002346;28;20030;-71
2023/07/23 03:12:01;;;;;;;6.22;4.03;;;20.20;99.90;;;;;;4999121;28;20105;-72
2023/07/23 03:14:27;;;;;;;8.85;4.10;;;20.20;99.90;;;;;;4995386;28;20104;-71
2023/07/23 03:16:52;;;;;;;6.82;4.65;;;20.00;99.90;;;;;;5000520;28;20029;-71
2023/07/23 03:19:18;;;;;;;10.43;4.80;;;20.10;99.90;;;;;;5001207;28;20504;-71
2023/07/23 03:21:43;;;;;;;14.95;5.47;;;20.10;99.90;;;;;;4998914;28;20026;-71
2023/07/23 03:24:09;;;;;;;6.50;4.28;;;20.20;99.90;;;;;;4998817;28;20030;-71
2023/07/23 03:26:35;;;;;;;10.80;4.28;;;20.10;99.90;;;;;;4992693;28;20034;-71
2023/07/23 03:29:00;;;;;;;9.07;4.78;;;20.10;99.90;;;;;;4998433;28;20084;-72
2023/07/23 03:31:26;;;;;;;10.38;4.85;;;20.00;99.90;;;;;;4992889;28;20042;-72
2023/07/23 03:33:52;;;;;;;7.60;3.70;;;20.10;99.90;;;;;;4997975;28;20680;-72
2023/07/23 03:36:18;;;;;;;8.52;5.00;;;20.10;99.90;;;;;;4996294;28;20048;-72
2023/07/23 03:38:43;;;;;;;16.30;4.55;;;20.20;99.90;;;;;;5001685;28;20026;-72
2023/07/23 03:41:09;;;;;;;8.80;5.22;;;20.30;99.90;;;;;;5001302;28;20034;-72
2023/07/23 03:43:35;;;;;;;7.70;4.55;;;20.30;99.90;;;;;;4995346;28;20030;-72
2023/07/23 03:46:01;;;;;;;13.93;5.32;;;20.30;99.90;;;;;;4993048;28;20045;-72
2023/07/23 03:48:26;;;;;;;10.20;4.53;;;20.30;99.90;;;;;;4999459;28;20227;-72
2023/07/23 03:50:52;;;;;;;13.77;5.25;;;20.30;99.90;;;;;;4999151;28;20030;-72
2023/07/23 03:53:18;;;;;;;7.72;3.85;;;20.20;99.90;;;;;;4996455;28;20025;-72
2023/07/23 03:55:43;;;;;;;10.38;4.47;;;20.30;99.90;;;;;;5001149;28;20133;-71
2023/07/23 03:58:09;;;;;;;6.72;4.57;;;20.00;99.90;;;;;;4993544;28;20075;-72
2023/07/23 04:00:36;;;;;;;7.45;4.82;;;20.00;99.90;;;;;;5000112;28;20529;-72
2023/07/23 04:03:01;;;;;;;9.20;4.47;;;20.20;99.90;;;;;;4995385;28;20077;-72
2023/07/23 04:05:27;;;;;;;8.77;4.65;;;20.00;99.90;;;;;;4994127;28;20415;-72
2023/07/23 04:07:52;;;;;;;7.85;4.88;;;20.00;99.90;;;;;;4994105;28;20042;-72
2023/07/23 04:10:18;;;;;;;10.80;5.00;;;20.00;99.90;;;;;;4999223;28;20021;-72
2023/07/23 04:12:44;;;;;;;9.38;4.72;;;20.10;99.90;;;;;;4993725;28;20030;-72
2023/07/23 04:15:09;;;;;;;9.07;5.43;;;20.00;99.90;;;;;;4994086;28;20657;-72
2023/07/23 04:17:35;;;;;;;8.55;4.88;;;20.00;99.90;;;;;;4994075;28;20911;-72
2023/07/23 04:20:01;;;;;;;10.70;4.45;;;20.00;99.90;;;;;;4996536;28;20053;-72
2023/07/23 04:22:26;;;;;;;7.88;5.15;;;19.90;99.90;;;;;;4995534;28;20108;-72
2023/07/23 04:24:52;;;;;;;6.70;4.85;;;19.90;99.90;;;;;;4999578;28;20052;-72
2023/07/23 04:27:18;;;;;;;8.35;4.90;;;20.00;99.90;;;;;;4992718;28;20065;-72
2023/07/23 04:29:43;;;;;;;7.50;4.68;;;20.00;99.90;;;;;;4998657;28;20030;-72
2023/07/23 04:32:09;;;;;;;11.07;4.60;;;20.10;99.90;;;;;;4993632;28;20038;-72
2023/07/23 04:34:34;;;;;;;12.32;5.63;;;20.10;99.90;;;;;;4988835;28;20145;-72
2023/07/23 04:37:00;;;;;;;13.52;5.65;;;20.10;99.90;;;;;;4995629;28;20036;-72
2023/07/23 04:39:26;;;;;;;7.05;4.28;;;20.30;99.90;;;;;;4992206;28;20038;-72
2023/07/23 04:41:51;;;;;;;8.60;4.15;;;20.40;99.90;;;;;;4999187;28;20556;-72
2023/07/23 04:44:17;;;;;;;8.18;4.60;;;20.40;99.90;;;;;;5001182;28;20582;-72
2023/07/23 04:46:43;;;;;;;11.25;4.45;;;20.40;99.90;;;;;;4996914;28;20177;-72
2023/07/23 04:49:08;;;;;;;9.10;4.82;;;20.50;99.90;;;;;;4994819;28;20121;-72
2023/07/23 04:51:34;;;;;;;10.18;4.55;;;20.50;99.90;;;;;;4992604;28;20590;-72
2023/07/23 04:53:59;;;;;;;6.28;4.15;;;20.40;99.90;;;;;;4999428;28;20034;-72
2023/07/23 04:56:25;;;;;;;11.25;5.05;;;20.40;99.90;;;;;;4988228;28;20037;-72
2023/07/23 04:58:51;;;;;;;8.55;4.95;;;20.50;99.90;;;;;;4995663;28;20109;-72
2023/07/23 05:01:16;;;;;;;6.72;4.38;;;20.50;99.90;;;;;;4994130;28;20041;-72
2023/07/23 05:03:42;;;;;;;8.93;4.60;;;20.50;99.90;;;;;;4996840;28;20476;-72
2023/07/23 05:06:08;;;;;;;9.95;4.95;;;20.50;99.90;;;;;;4990820;28;20042;-73
2023/07/23 05:08:35;;;;;;;9.63;4.95;;;20.50;99.90;;;;;;4990289;28;20056;-72
2023/07/23 05:11:02;;;;;;;8.52;5.13;;;20.50;99.90;;;;;;4995831;28;20368;-72
2023/07/23 05:13:29;;;;;;;8.57;5.30;;;20.60;99.90;;;;;;4991113;28;20030;-72
2023/07/23 05:15:55;;;;;;;9.07;4.60;;;20.70;99.90;;;;;;4999098;28;20076;-72
2023/07/23 05:18:22;;;;;;;9.90;4.97;;;20.70;99.90;;;;;;4988908;28;20025;-72
2023/07/23 05:20:47;;;;;;;12.30;5.60;;;20.70;99.90;;;;;;4994827;28;20053;-72
2023/07/23 05:23:13;;;;;;;9.15;4.88;;;20.70;99.90;;;;;;4989358;28;21052;-72
2023/07/23 05:25:39;;;;;;;6.88;4.75;;;20.70;99.90;;;;;;4995545;28;20519;-72
2023/07/23 05:28:04;;;;;;;7.80;5.05;;;20.70;99.90;;;;;;4996845;28;20065;-72
2023/07/23 05:30:30;;;;;;;8.52;4.65;;;20.70;99.90;;;;;;4998693;28;20030;-72
2023/07/23 05:32:55;;;;;;;9.07;4.28;;;20.90;99.90;;;;;;4994381;28;20026;-72
2023/07/23 05:35:21;;;;;;;8.85;5.05;;;20.90;99.90;;;;;;4997631;28;20025;-72
2023/07/23 05:37:47;;;;;;;8.45;4.88;;;21.00;99.90;;;;;;4993274;28;20022;-72
2023/07/23 05:40:13;;;;;;;7.90;4.50;;;21.00;99.90;;;;;;4999873;28;20034;-72
2023/07/23 05:42:38;;;;;;;10.30;4.95;;;21.00;99.90;;;;;;4995529;28;20125;-72
2023/07/23 05:45:04;;;;;;;8.55;5.43;;;21.00;99.90;;;;;;4995777;28;20120;-72
2023/07/23 05:47:30;;;;;;;10.98;5.68;;;21.10;99.90;;;;;;5001162;28;20100;-72
2023/07/23 05:49:55;;;;;;;9.23;4.80;;;21.10;99.90;;;;;;4994377;28;20823;-72
2023/07/23 05:52:21;;;;;;;8.93;5.65;;;21.20;99.90;;;;;;4997306;28;20552;-72
2023/07/23 05:54:47;;;;;;;9.10;5.13;;;21.10;99.90;;;;;;4992706;28;20035;-72
2023/07/23 05:57:13;;;;;;;7.65;4.53;;;21.10;99.90;;;;;;4996958;28;20057;-72
2023/07/23 05:59:39;;;;;;;7.65;4.85;;;21.20;99.90;;;;;;4994878;28;20048;-72
2023/07/23 06:02:05;;;;;;;8.25;5.07;;;21.30;99.90;;;;;;4994540;28;20067;-72
2023/07/23 06:04:31;;;;;;;8.60;4.85;;;21.30;99.90;;;;;;4994123;28;20033;-72
2023/07/23 06:06:56;;;;;;;8.60;5.47;;;21.30;99.90;;;;;;4993667;28;20527;-72
2023/07/23 06:09:22;;;;;;;9.48;4.75;;;21.30;99.90;;;;;;4998258;28;20022;-72
2023/07/23 06:11:48;;;;;;;8.73;4.47;;;21.40;99.90;;;;;;4996025;28;20026;-72
2023/07/23 06:14:13;;;;;;;12.93;5.93;;;21.50;99.90;;;;;;4992299;28;20031;-72
2023/07/23 06:16:39;;;;;;;8.30;4.78;;;21.50;99.90;;;;;;4996627;28;20720;-71
2023/07/23 06:19:05;;;;;;;10.05;5.13;;;21.40;99.90;;;;;;4997122;28;20776;-71
2023/07/23 06:21:31;;;;;;;9.25;4.57;;;21.30;99.90;;;;;;4991494;28;20081;-72
2023/07/23 06:23:57;;;;;;;8.30;4.80;;;21.30;99.90;;;;;;4993384;28;20037;-71
2023/07/23 06:26:22;;;;;;;9.60;5.05;;;21.30;99.90;;;;;;4990448;28;20072;-71
2023/07/23 06:28:48;;;;;;;8.50;5.18;;;21.50;99.90;;;;;;4987408;28;20503;-71
2023/07/23 06:31:14;;;;;;;9.63;6.05;;;21.50;99.90;;;;;;4990265;28;20027;-71
2023/07/23 06:33:39;;;;;;;8.85;5.10;;;21.50;99.90;;;;;;4987827;28;20595;-71
2023/07/23 06:36:05;;;;;;;7.60;4.85;;;21.50;99.90;;;;;;4994028;28;20179;-71
2023/07/23 06:38:31;;;;;;;8.23;4.47;;;21.60;99.90;;;;;;4996661;28;20577;-72
2023/07/23 06:40:56;;;;;;;9.60;4.40;;;21.70;99.90;;;;;;4994178;28;20026;-72
2023/07/23 06:43:23;;;;;;;7.97;4.43;;;21.70;99.90;;;;;;4993878;28;20033;-71
2023/07/23 06:45:50;;;;;;;9.73;5.53;;;21.80;99.90;;;;;;4989144;28;20033;-72
2023/07/23 06:48:18;;;;;;;7.82;4.70;;;21.70;99.90;;;;;;4990651;28;20389;-71
2023/07/23 06:50:47;;;;;;;7.65;4.93;;;21.80;99.90;;;;;;4992137;28;20035;-72
2023/07/23 06:53:13;;;;;;;9.43;5.13;;;21.80;99.90;;;;;;4995265;28;20033;-71
2023/07/23 06:56:02;;;;;;;6.80;4.57;;;21.80;99.90;;;;;;4996465;28;20032;-71
2023/07/23 06:58:29;;;;;;;9.02;4.70;;;21.90;99.90;;;;;;4994113;28;20026;-72
2023/07/23 07:00:54;;;;;;;9.70;4.45;;;22.00;99.90;;;;;;4997920;28;20026;-71
2023/07/23 07:03:20;;;;;;;8.93;5.65;;;22.20;99.90;;;;;;4990620;28;20037;-71
2023/07/23 07:05:46;;;;;;;9.30;5.03;;;22.20;99.90;;;;;;4991763;28;20411;-71
2023/07/23 07:08:12;;;;;;;9.57;4.57;;;22.40;99.90;;;;;;4994528;28;20964;-71
2023/07/23 07:10:38;;;;;;;7.45;4.97;;;22.40;99.90;;;;;;4991954;28;20430;-71
2023/07/23 07:13:03;;;;;;;11.38;4.57;;;22.70;99.90;;;;;;4996356;28;20597;-71
2023/07/23 07:15:29;;;;;;;7.03;4.43;;;23.00;99.90;;;;;;4993606;28;20037;-72
2023/07/23 07:17:55;;;;;;;8.60;5.05;;;23.10;99.90;;;;;;4989232;28;20034;-71
2023/07/23 07:20:21;;;;;;;7.53;5.13;;;23.20;99.90;;;;;;4995542;28;20108;-71
2023/07/23 07:22:46;;;;;;;8.55;4.80;;;23.50;99.90;;;;;;4988557;28;20445;-71
2023/07/23 07:25:12;;;;;;;8.32;4.72;;;23.80;99.90;;;;;;4993872;28;20026;-71
2023/07/23 07:27:38;;;;;;;11.30;5.22;;;23.60;99.90;;;;;;4991721;28;20041;-72
2023/07/23 07:30:04;;;;;;;10.75;4.60;;;23.40;99.90;;;;;;4993494;28;20035;-72
2023/07/23 07:32:30;;;;;;;12.20;5.05;;;23.40;99.90;;;;;;4995916;28;20049;-72
2023/07/23 07:34:55;;;;;;;8.25;4.88;;;23.40;99.90;;;;;;4995280;28;20169;-71
2023/07/23 07:37:22;;;;;;;10.65;4.25;;;23.30;99.90;;;;;;4996877;28;20073;-72
2023/07/23 07:39:47;;;;;;;8.73;4.75;;;23.40;99.90;;;;;;4994744;28;20038;-71
2023/07/23 07:42:13;;;;;;;6.70;4.18;;;23.40;99.90;;;;;;4996202;28;20034;-72
2023/07/23 07:44:39;;;;;;;12.60;4.68;;;23.30;99.90;;;;;;4997340;28;20022;-71
2023/07/23 07:47:05;;;;;;;7.53;4.78;;;23.20;99.90;;;;;;4996029;28;20038;-72
2023/07/23 07:49:30;;;;;;;8.63;4.82;;;23.60;99.90;;;;;;5000005;28;20072;-72
2023/07/23 07:51:56;;;;;;;10.30;4.90;;;25.70;99.90;;;;;;5009980;28;20471;-71
2023/07/23 07:54:22;;;;;;;8.85;4.53;;;27.10;99.90;;;;;;4997410;28;20058;-72
2023/07/23 07:56:49;;;;;;;9.95;4.88;;;27.70;99.90;;;;;;4999522;28;20034;-72
2023/07/23 07:59:15;;;;;;;8.98;4.85;;;27.80;99.10;;;;;;4996342;28;20084;-73
2023/07/23 08:01:41;;;;;;;7.93;4.28;;;28.50;98.60;;;;;;5000823;28;20492;-71
2023/07/23 08:04:09;;;;;;;10.38;5.03;;;28.10;98.10;;;;;;5004110;28;20521;-72
2023/07/23 08:06:39;;;;;;;8.85;4.32;;;28.00;98.30;;;;;;5001960;28;20029;-72
2023/07/23 08:09:08;;;;;;;7.85;4.70;;;27.50;98.40;;;;;;4997543;28;20025;-72
2023/07/23 08:11:36;;;;;;;6.63;4.20;;;25.90;99.90;;;;;;5002729;28;20034;-72
2023/07/23 08:14:03;;;;;;;9.32;4.47;;;26.00;99.90;;;;;;5000871;28;20112;-72
2023/07/23 08:16:30;;;;;;;8.73;4.45;;;26.60;99.90;;;;;;5003170;28;20522;-72
2023/07/23 08:18:56;;;;;;;6.97;4.47;;;25.90;99.90;;;;;;5002337;28;20022;-72
2023/07/23 08:21:22;;;;;;;8.05;4.30;;;25.70;99.90;;;;;;5000789;28;20080;-72
2023/07/23 08:23:49;;;;;;;7.75;4.82;;;25.90;99.90;;;;;;5006027;28;20449;-72
2023/07/23 08:26:19;;;;;;;7.95;4.47;;;26.00;99.90;;;;;;4993613;28;20570;-72
2023/07/23 08:28:51;;;;;;;6.68;4.53;;;25.90;99.90;;;;;;5008884;28;20053;-72
2023/07/23 08:31:21;;;;;;;7.20;4.25;;;25.70;99.90;;;;;;5007085;28;20038;-71
2023/07/23 08:33:48;;;;;;;7.85;4.75;;;25.70;99.90;;;;;;4990360;28;20040;-72
2023/07/23 08:36:16;;;;;;;8.27;4.05;;;25.80;99.90;;;;;;5002132;28;20033;-72
2023/07/23 08:38:42;;;;;;;8.90;4.30;;;25.80;99.90;;;;;;5008967;28;20498;-73
2023/07/23 08:41:36;;;;;;;8.65;4.53;;;25.80;99.90;;;;;;5007064;28;20040;-71
2023/07/23 08:44:21;;;;;;;8.93;5.03;;;25.80;99.90;;;;;;5010039;28;20046;-71
2023/07/23 08:46:47;;;;;;;15.48;5.03;;;25.60;99.90;;;;;;5014342;28;20109;-71
2023/07/23 08:49:16;;;;;;;7.97;4.50;;;25.60;99.90;;;;;;5015608;28;20080;-72
2023/07/23 08:51:48;;;;;;;8.18;4.15;;;25.90;99.90;;;;;;5010737;28;20032;-71
2023/07/23 08:54:16;;;;;;;8.45;4.38;;;25.70;99.90;;;;;;5012050;28;20144;-72
2023/07/23 08:56:43;;;;;;;10.88;4.68;;;25.80;99.90;;;;;;5004060;28;20029;-72
2023/07/23 08:59:09;;;;;;;7.95;4.40;;;26.10;99.90;;;;;;5010277;28;20088;-71
2023/07/23 09:01:37;;;;;;;7.38;4.25;;;25.70;99.90;;;;;;5009470;28;20053;-72
2023/07/23 09:04:08;;;;;;;8.48;5.43;;;25.90;99.90;;;;;;4999932;28;20030;-71
2023/07/23 09:06:34;;;;;;;6.38;4.18;;;25.90;99.90;;;;;;5002631;28;20087;-71
2023/07/23 09:09:11;;;;;;;7.80;4.18;;;25.60;99.90;;;;;;5002614;28;20038;-72
2023/07/23 09:11:38;;;;;;;7.45;5.00;;;26.00;99.90;;;;;;5000921;28;20103;-72
2023/07/23 09:14:12;;;;;;;6.78;4.63;;;26.30;99.90;;;;;;5007709;28;20038;-71
2023/07/23 09:16:38;;;;;;;;;;;25.70;99.90;;;;;;5009719;28;20042;-72
2023/07/23 09:19:05;;;;;;;9.02;5.05;;;26.10;99.90;;;;;;5004225;28;19910;-71
2023/07/23 09:21:31;;;;;;;7.50;4.63;;;26.20;99.90;;;;;;5007589;28;20030;-71
2023/07/23 09:23:57;;;;;;;10.00;4.53;;;26.40;99.90;;;;;;4989574;28;20129;-72
2023/07/23 09:26:26;;;;;;;8.02;5.07;;;26.30;99.90;;;;;;5001050;28;20033;-72
2023/07/23 09:28:54;;;;;;;7.53;4.60;;;26.60;99.90;;;;;;5007498;28;20038;-72
2023/07/23 09:31:33;;;;;;;10.90;4.68;;;26.90;99.90;;;;;;5008151;28;20080;-71
2023/07/23 09:34:00;;;;;;;8.18;4.60;;;26.90;99.90;;;;;;5008185;28;20056;-71
2023/07/23 09:36:28;;;;;;;9.68;4.93;;;26.70;99.50;;;;;;5007397;28;20657;-72
2023/07/23 09:38:59;;;;;;;7.25;4.68;;;26.70;99.50;;;;;;5007310;28;20092;-71
2023/07/23 09:41:38;;;;;;;6.82;4.22;;;26.50;99.30;;;;;;5006820;28;20036;-71
2023/07/23 09:44:13;;;;;;;9.95;4.88;;;26.60;99.90;;;;;;5007479;28;20133;-71
2023/07/23 09:46:43;;;;;;;7.93;5.28;;;26.80;99.90;;;;;;5008781;28;20037;-72
2023/07/23 09:49:09;;;;;;;9.05;5.45;;;26.80;99.80;;;;;;5006492;28;20038;-73
2023/07/23 09:51:37;;;;;;;7.93;5.43;;;27.10;99.90;;;;;;5006340;28;21129;-72
2023/07/23 09:54:04;;;;;;;8.57;4.20;;;26.80;99.90;;;;;;5007331;28;20035;-72
2023/07/23 09:56:33;;;;;;;8.05;5.03;;;27.30;99.90;;;;;;5006053;28;20030;-72
2023/07/23 09:58:59;;;;;;;8.65;4.40;;;27.70;99.90;;;;;;5006004;28;20025;-72
2023/07/23 10:01:25;;;;;;;7.75;5.90;;;27.60;99.90;;;;;;5007478;28;20098;-71
2023/07/23 10:03:52;;;;;;;11.80;6.13;;;27.90;99.90;;;;;;5007987;28;20026;-72
2023/07/23 10:06:22;;;;;;;7.13;5.00;;;27.80;98.80;;;;;;5004546;28;20679;-72
2023/07/23 10:08:49;;;;;;;11.70;5.95;;;27.80;99.30;;;;;;5004703;28;20117;-71
2023/07/23 10:11:16;;;;;;;9.85;4.47;;;27.80;99.90;;;;;;5007030;28;20026;-72
2023/07/23 10:13:43;;;;;;;8.60;4.72;;;28.00;99.10;;;;;;5006976;28;20426;-72
2023/07/23 10:16:15;;;;;;;7.75;4.80;;;27.90;98.30;;;;;;5007802;28;20030;-72
2023/07/23 10:18:42;;;;;;;7.57;4.60;;;27.90;98.90;;;;;;5004538;28;20068;-72
2023/07/23 10:21:09;;;;;;;8.85;5.20;;;28.10;99.00;;;;;;5004857;28;20074;-71
2023/07/23 10:23:39;;;;;;;9.70;4.97;;;28.20;98.20;;;;;;5007455;28;20427;-71
2023/07/23 10:26:19;;;;;;;8.45;5.18;;;28.20;98.30;;;;;;5006295;28;20055;-73
2023/07/23 10:28:45;;;;;;;7.85;4.22;;;28.00;98.60;;;;;;5004355;28;20049;-72
2023/07/23 10:31:26;;;;;;;7.28;5.03;;;28.30;99.30;;;;;;5006485;28;20034;-72
2023/07/23 10:33:52;;;;;;;9.60;4.95;;;28.70;99.20;;;;;;5008311;28;20058;-72
2023/07/23 10:36:22;;;;;;;7.97;5.15;;;28.70;98.40;;;;;;5008187;28;20073;-72
2023/07/23 10:39:15;;;;;;;8.43;4.72;;;27.90;98.40;;;;;;5002590;28;20026;-73
2023/07/23 10:41:55;;;;;;;14.60;9.07;;;28.00;98.80;;;;;;5002201;28;20037;-72
2023/07/23 10:44:28;;;;;;;7.47;4.80;;;28.10;98.70;;;;;;4996484;28;20089;-72
2023/07/23 10:46:56;;;;;;;8.18;5.43;;;28.30;98.50;;;;;;4998828;28;20084;-73
2023/07/23 10:49:26;;;;;;;6.40;4.57;;;28.20;99.00;;;;;;4995519;28;20019;-72
2023/07/23 10:51:52;;;;;;;10.75;5.05;;;28.30;98.50;;;;;;4998175;28;20604;-72
2023/07/23 10:54:21;;;;;;;10.02;7.25;;;28.50;99.00;;;;;;5000177;28;20045;-73
2023/07/23 10:56:50;;;;;;;10.73;5.85;;;28.50;98.40;;;;;;4999095;28;20034;-73
2023/07/23 10:59:19;;;;;;;7.35;5.00;;;28.70;98.50;;;;;;4997074;28;20022;-72
2023/07/23 11:01:48;;;;;;;10.13;4.68;;;28.80;98.40;;;;;;4995610;28;20033;-72
2023/07/23 11:04:24;;;;;;;8.75;4.57;;;29.40;98.90;;;;;;4997018;28;20022;-72
2023/07/23 11:07:00;;;;;;;7.40;4.50;;;29.60;98.00;;;;;;4999277;28;20034;-72
2023/07/23 11:09:34;;;;;;;10.52;4.50;;;29.10;97.20;;;;;;5003344;28;20080;-72
2023/07/23 11:12:02;;;;;;;9.20;4.47;;;29.00;97.70;;;;;;4999068;28;20026;-72
2023/07/23 11:14:30;;;;;;;9.30;4.82;;;29.00;96.50;;;;;;4985529;28;20025;-72
2023/07/23 11:16:59;;;;;;;8.75;5.20;;;29.20;96.80;;;;;;4994472;28;20049;-72
2023/07/23 11:19:26;;;;;;;8.18;5.10;;;29.30;97.60;;;;;;5004736;28;20053;-72
2023/07/23 11:21:54;;;;;;;7.45;5.07;;;29.30;97.70;;;;;;5005265;28;20034;-72
2023/07/23 11:24:20;;;;;;;10.93;5.32;;;29.20;97.50;;;;;;5006769;28;20520;-72
2023/07/23 11:26:47;;;;;;;9.52;5.63;;;29.70;97.50;;;;;;5005506;28;20575;-72
2023/07/23 11:29:13;;;;;;;10.32;5.32;;;29.60;97.40;;;;;;5005576;28;20162;-72
2023/07/23 11:31:40;;;;;;;12.18;5.07;;;29.60;97.00;;;;;;5005278;28;20053;-72
2023/07/23 11:34:06;;;;;;;7.32;4.93;;;29.50;97.90;;;;;;5006136;28;20030;-73
2023/07/23 11:36:36;;;;;;;8.35;5.05;;;29.70;97.10;;;;;;5002658;28;20109;-72
2023/07/23 11:39:03;;;;;;;7.60;4.60;;;29.60;96.90;;;;;;5001868;28;20052;-73
2023/07/23 11:41:40;;;;;;;8.80;5.10;;;29.40;96.90;;;;;;4998933;28;20053;-72
2023/07/23 11:44:07;;;;;;;8.25;5.10;;;29.60;97.00;;;;;;5000363;28;20042;-72
2023/07/23 11:46:38;;;;;;;8.43;5.40;;;29.90;97.30;;;;;;5006270;28;20037;-73
2023/07/23 11:49:06;;;;;;;12.18;5.70;;;29.70;96.90;;;;;;5003819;28;20105;-72
2023/07/23 11:51:33;;;;;;;8.20;5.50;;;29.40;96.60;;;;;;4999264;28;20076;-72
2023/07/23 11:54:01;;;;;;;8.93;5.40;;;29.40;96.70;;;;;;5003155;28;20037;-72
2023/07/23 11:56:27;;;;;;;11.55;6.18;;;30.00;97.50;;;;;;4998290;28;20513;-72
2023/07/23 11:58:52;;;;;;;9.80;5.38;;;30.10;96.90;;;;;;5001061;28;20029;-71
2023/07/23 12:01:18;;;;;;;10.82;4.97;;;30.30;97.20;;;;;;4998127;28;20057;-72
2023/07/23 12:03:45;;;;;;;11.35;5.28;;;30.40;96.90;;;;;;5007083;28;20022;-72
2023/07/23 12:06:15;;;;;;;10.55;5.20;;;30.50;96.70;;;;;;5004221;28;20041;-72
2023/07/23 12:08:47;;;;;;;8.82;5.28;;;30.40;96.30;;;;;;4999103;28;20025;-72
2023/07/23 12:11:14;;;;;;;6.82;4.53;;;30.20;96.50;;;;;;5004723;28;20109;-72
2023/07/23 12:13:51;;;;;;;9.50;5.72;;;30.30;96.40;;;;;;5004591;28;20046;-73
2023/07/23 12:16:39;;;;;;;10.93;6.22;;;30.40;96.40;;;;;;4999098;28;20025;-73
2023/07/23 12:19:12;;;;;;;10.88;5.47;;;30.50;96.50;;;;;;5001437;28;20547;-72
2023/07/23 12:21:40;;;;;;;8.88;5.53;;;30.50;96.10;;;;;;5000693;28;20034;-72
2023/07/23 12:24:23;;;;;;;10.85;6.35;;;30.70;96.10;;;;;;5001574;28;20026;-72
2023/07/23 12:26:51;;;;;;;10.13;6.82;;;30.40;96.20;;;;;;5003672;28;20129;-72
2023/07/23 12:29:17;;;;;;;10.43;6.60;;;30.40;95.80;;;;;;5002829;28;20034;-72
2023/07/23 12:31:46;;;;;;;12.35;7.20;;;30.30;96.10;;;;;;4999011;28;20026;-72
2023/07/23 12:34:12;;;;;;;12.63;5.90;;;30.70;96.80;;;;;;4999393;28;20048;-73
2023/07/23 12:36:39;;;;;;;9.60;5.97;;;30.60;96.10;;;;;;5002705;28;20029;-72
2023/07/23 12:39:06;;;;;;;10.43;6.95;;;30.60;96.00;;;;;;4998793;28;20032;-72
2023/07/23 12:41:31;;;;;;;10.95;6.25;;;30.50;95.50;;;;;;4999332;28;20459;-72
2023/07/23 12:43:57;;;;;;;15.15;7.32;;;30.50;95.70;;;;;;4998563;28;20034;-72
2023/07/23 12:46:23;;;;;;;11.73;6.95;;;30.80;95.80;;;;;;4997300;28;20034;-72